Startpagina
METAR-TAF:

METAR-TAF

Vliegvelden :

Damascus, Syrië

Luchthaven Damascus

breedte: 33-25N, lengte: 036-31E, hoogte: 608 m

Actueel weer

Dit bericht is 17 minuten geleden gemaakt, om 15:00 UTC
Wind 21 kt uit het westzuidwesten
Temperatuur 33°C
Vochtigheid 14%
Druk 1014 hPa
Zicht 10 km of meer
geen wolken onder 1500 m en geen cumulonimbus

METAR: OSDI 221500Z 24021KT CAVOK 33/02 Q1014

Tijdstip: 18:17 (15:17 UTC)

Verwachting

Dit bericht is 5 uur en het 17 minuten geleden gemaakt, om 10:00 UTC
Verwachting geldig van 22 om 12 UTC tot 23 om 18 UTC
Wind 10 kt uit het zuidwesten
Zicht 10 km of meer
geen wolken onder 1500 m en geen cumulonimbus
Tijdelijke
van 22 om 12 UTC tot 22 om 18 UTC
Wind 10 kt uit het westen met uitschieters tot 20 kt
Zicht 10 km of meer
Weinig wolken op 3000 ft

TAF: OSDI 221000Z 2212/2318 22010KT CAVOK TEMPO 2212/2218 28010G20KT 9999 FEW030

Waarnemingen en weersverwachtingen van meer dan 4000 vliegvelden (METAR en TAF).

De beschikbare stations zijn de gele en rode punten op de kaart.

Ga met uw muis naar het station om de naam te zien.

Klik dan om waarnemingen en weersverwachtingen te zien.

kaart wijzigen: klik op de groene knoppen met een zwart kruis om in te zoomen, op de groene knop met een streepje om uit te zoomen of op de groene pijlen voor aangrenzende kaarten.


METAR-TAF: